sensor_id;sensor_type;location;lat;lon;timestamp;temperature;humidity
15364;DHT22;7781;49.690;6.472;2022-10-03T00:00:56;8.80;99.90
15364;DHT22;7781;49.690;6.472;2022-10-03T00:03:35;8.80;99.90
15364;DHT22;7781;49.690;6.472;2022-10-03T00:06:11;8.80;99.90
15364;DHT22;7781;49.690;6.472;2022-10-03T00:08:57;8.80;99.90
15364;DHT22;7781;49.690;6.472;2022-10-03T00:11:35;8.80;99.90
15364;DHT22;7781;49.690;6.472;2022-10-03T00:14:12;8.80;99.90
15364;DHT22;7781;49.690;6.472;2022-10-03T00:16:47;8.90;99.90
15364;DHT22;7781;49.690;6.472;2022-10-03T00:19:27;8.90;99.90
15364;DHT22;7781;49.690;6.472;2022-10-03T00:22:06;8.80;99.90
15364;DHT22;7781;49.690;6.472;2022-10-03T00:24:49;8.70;99.90
15364;DHT22;7781;49.690;6.472;2022-10-03T00:27:27;8.60;99.90
15364;DHT22;7781;49.690;6.472;2022-10-03T00:30:12;8.60;99.90
15364;DHT22;7781;49.690;6.472;2022-10-03T00:32:58;8.50;99.90
15364;DHT22;7781;49.690;6.472;2022-10-03T00:35:39;8.40;99.90
15364;DHT22;7781;49.690;6.472;2022-10-03T00:38:28;8.30;99.90
15364;DHT22;7781;49.690;6.472;2022-10-03T00:44:30;8.20;99.90
15364;DHT22;7781;49.690;6.472;2022-10-03T00:47:19;8.20;99.90
15364;DHT22;7781;49.690;6.472;2022-10-03T00:53:29;8.30;99.90
15364;DHT22;7781;49.690;6.472;2022-10-03T00:56:12;8.30;99.90
15364;DHT22;7781;49.690;6.472;2022-10-03T00:58:58;8.30;99.90
15364;DHT22;7781;49.690;6.472;2022-10-03T01:01:35;8.20;99.90
15364;DHT22;7781;49.690;6.472;2022-10-03T01:04:32;8.20;99.90
15364;DHT22;7781;49.690;6.472;2022-10-03T01:07:12;8.20;99.90
15364;DHT22;7781;49.690;6.472;2022-10-03T01:10:05;8.30;99.90
15364;DHT22;7781;49.690;6.472;2022-10-03T01:12:52;8.30;99.90
15364;DHT22;7781;49.690;6.472;2022-10-03T01:15:30;8.30;99.90
15364;DHT22;7781;49.690;6.472;2022-10-03T01:18:13;8.30;99.90
15364;DHT22;7781;49.690;6.472;2022-10-03T01:20:56;8.30;99.90
15364;DHT22;7781;49.690;6.472;2022-10-03T01:23:51;8.30;99.90
15364;DHT22;7781;49.690;6.472;2022-10-03T01:26:53;8.30;99.90
15364;DHT22;7781;49.690;6.472;2022-10-03T01:29:38;8.40;99.90
15364;DHT22;7781;49.690;6.472;2022-10-03T01:32:31;8.40;99.90
15364;DHT22;7781;49.690;6.472;2022-10-03T01:35:10;8.40;99.90
15364;DHT22;7781;49.690;6.472;2022-10-03T01:37:46;8.40;99.90
15364;DHT22;7781;49.690;6.472;2022-10-03T01:40:24;8.40;99.90
15364;DHT22;7781;49.690;6.472;2022-10-03T01:43:04;8.50;99.90
15364;DHT22;7781;49.690;6.472;2022-10-03T01:45:42;8.50;99.90
15364;DHT22;7781;49.690;6.472;2022-10-03T01:48:16;8.40;99.90
15364;DHT22;7781;49.690;6.472;2022-10-03T01:50:51;8.40;99.90
15364;DHT22;7781;49.690;6.472;2022-10-03T01:53:32;8.40;99.90
15364;DHT22;7781;49.690;6.472;2022-10-03T01:56:07;8.50;99.90
15364;DHT22;7781;49.690;6.472;2022-10-03T01:58:46;8.50;99.90
15364;DHT22;7781;49.690;6.472;2022-10-03T02:01:23;8.60;99.90
15364;DHT22;7781;49.690;6.472;2022-10-03T02:03:58;8.60;99.90
15364;DHT22;7781;49.690;6.472;2022-10-03T02:06:41;8.70;99.90
15364;DHT22;7781;49.690;6.472;2022-10-03T02:09:19;8.70;99.90
15364;DHT22;7781;49.690;6.472;2022-10-03T02:11:59;8.70;99.90
15364;DHT22;7781;49.690;6.472;2022-10-03T02:14:34;8.70;99.90
15364;DHT22;7781;49.690;6.472;2022-10-03T02:17:13;8.70;99.90
15364;DHT22;7781;49.690;6.472;2022-10-03T02:19:50;8.60;99.90
15364;DHT22;7781;49.690;6.472;2022-10-03T02:22:30;8.60;99.90
15364;DHT22;7781;49.690;6.472;2022-10-03T02:25:14;8.50;99.90
15364;DHT22;7781;49.690;6.472;2022-10-03T02:30:55;8.50;99.90
15364;DHT22;7781;49.690;6.472;2022-10-03T02:33:45;8.50;99.90
15364;DHT22;7781;49.690;6.472;2022-10-03T02:36:39;8.50;99.90
15364;DHT22;7781;49.690;6.472;2022-10-03T02:39:43;8.60;99.90
15364;DHT22;7781;49.690;6.472;2022-10-03T02:42:46;8.60;99.90
15364;DHT22;7781;49.690;6.472;2022-10-03T02:46:05;8.60;99.90
15364;DHT22;7781;49.690;6.472;2022-10-03T02:48:56;8.60;99.90
15364;DHT22;7781;49.690;6.472;2022-10-03T02:51:39;8.50;99.90
15364;DHT22;7781;49.690;6.472;2022-10-03T03:01:03;8.50;99.90
15364;DHT22;7781;49.690;6.472;2022-10-03T03:04:05;8.50;99.90
15364;DHT22;7781;49.690;6.472;2022-10-03T03:07:01;8.50;99.90
15364;DHT22;7781;49.690;6.472;2022-10-03T03:12:54;8.20;99.90
15364;DHT22;7781;49.690;6.472;2022-10-03T03:16:04;8.20;99.90
15364;DHT22;7781;49.690;6.472;2022-10-03T03:18:43;8.20;99.90
15364;DHT22;7781;49.690;6.472;2022-10-03T03:21:22;8.10;99.90
15364;DHT22;7781;49.690;6.472;2022-10-03T03:24:13;8.00;99.90
15364;DHT22;7781;49.690;6.472;2022-10-03T03:26:55;8.00;99.90
15364;DHT22;7781;49.690;6.472;2022-10-03T03:29:35;8.00;99.90
15364;DHT22;7781;49.690;6.472;2022-10-03T03:32:13;8.00;99.90
15364;DHT22;7781;49.690;6.472;2022-10-03T03:34:49;8.10;99.90
15364;DHT22;7781;49.690;6.472;2022-10-03T03:37:28;8.20;99.90
15364;DHT22;7781;49.690;6.472;2022-10-03T03:40:10;8.10;99.90
15364;DHT22;7781;49.690;6.472;2022-10-03T03:43:02;8.00;99.90
15364;DHT22;7781;49.690;6.472;2022-10-03T03:45:52;8.00;99.90
15364;DHT22;7781;49.690;6.472;2022-10-03T03:48:36;8.10;99.90
15364;DHT22;7781;49.690;6.472;2022-10-03T03:51:19;8.20;99.90
15364;DHT22;7781;49.690;6.472;2022-10-03T03:54:11;8.20;99.90
15364;DHT22;7781;49.690;6.472;2022-10-03T03:56:58;8.30;99.90
15364;DHT22;7781;49.690;6.472;2022-10-03T03:59:38;8.40;99.90
15364;DHT22;7781;49.690;6.472;2022-10-03T04:02:27;8.40;99.90
15364;DHT22;7781;49.690;6.472;2022-10-03T04:05:09;8.30;99.90
15364;DHT22;7781;49.690;6.472;2022-10-03T04:07:59;8.30;99.90
15364;DHT22;7781;49.690;6.472;2022-10-03T04:10:51;8.30;99.90
15364;DHT22;7781;49.690;6.472;2022-10-03T04:13:41;8.20;99.90
15364;DHT22;7781;49.690;6.472;2022-10-03T04:16:28;8.20;99.90
15364;DHT22;7781;49.690;6.472;2022-10-03T04:19:23;8.20;99.90
15364;DHT22;7781;49.690;6.472;2022-10-03T04:22:22;8.20;99.90
15364;DHT22;7781;49.690;6.472;2022-10-03T04:28:12;8.20;99.90
15364;DHT22;7781;49.690;6.472;2022-10-03T04:30:51;8.30;99.90
15364;DHT22;7781;49.690;6.472;2022-10-03T04:33:31;8.20;99.90
15364;DHT22;7781;49.690;6.472;2022-10-03T04:36:30;8.20;99.90
15364;DHT22;7781;49.690;6.472;2022-10-03T04:39:09;8.20;99.90
15364;DHT22;7781;49.690;6.472;2022-10-03T04:41:46;8.20;99.90
15364;DHT22;7781;49.690;6.472;2022-10-03T04:44:34;8.20;99.90
15364;DHT22;7781;49.690;6.472;2022-10-03T04:47:12;8.20;99.90
15364;DHT22;7781;49.690;6.472;2022-10-03T04:49:44;8.10;99.90
15364;DHT22;7781;49.690;6.472;2022-10-03T04:52:18;8.10;99.90
15364;DHT22;7781;49.690;6.472;2022-10-03T04:54:59;8.20;99.90
15364;DHT22;7781;49.690;6.472;2022-10-03T04:57:35;8.10;99.90
15364;DHT22;7781;49.690;6.472;2022-10-03T05:00:20;8.10;99.90
15364;DHT22;7781;49.690;6.472;2022-10-03T05:02:54;8.10;99.90
15364;DHT22;7781;49.690;6.472;2022-10-03T05:05:37;8.10;99.90
15364;DHT22;7781;49.690;6.472;2022-10-03T05:08:16;8.20;99.90
15364;DHT22;7781;49.690;6.472;2022-10-03T05:11:13;8.00;99.90
15364;DHT22;7781;49.690;6.472;2022-10-03T05:13:55;8.00;99.90
15364;DHT22;7781;49.690;6.472;2022-10-03T05:16:36;7.90;99.90
15364;DHT22;7781;49.690;6.472;2022-10-03T05:22:26;7.90;99.90
15364;DHT22;7781;49.690;6.472;2022-10-03T05:25:04;7.90;99.90
15364;DHT22;7781;49.690;6.472;2022-10-03T05:27:43;8.00;99.90
15364;DHT22;7781;49.690;6.472;2022-10-03T05:30:35;8.00;99.90
15364;DHT22;7781;49.690;6.472;2022-10-03T05:33:14;8.00;99.90
15364;DHT22;7781;49.690;6.472;2022-10-03T05:35:53;8.00;99.90
15364;DHT22;7781;49.690;6.472;2022-10-03T05:41:26;8.10;99.90
15364;DHT22;7781;49.690;6.472;2022-10-03T05:44:02;8.10;99.90
15364;DHT22;7781;49.690;6.472;2022-10-03T05:46:57;8.20;99.90
15364;DHT22;7781;49.690;6.472;2022-10-03T05:49:56;8.20;99.90
15364;DHT22;7781;49.690;6.472;2022-10-03T05:52:45;8.20;99.90
15364;DHT22;7781;49.690;6.472;2022-10-03T05:55:33;8.20;99.90
15364;DHT22;7781;49.690;6.472;2022-10-03T05:58:29;8.20;99.90
15364;DHT22;7781;49.690;6.472;2022-10-03T06:01:26;8.20;99.90
15364;DHT22;7781;49.690;6.472;2022-10-03T06:07:13;8.20;99.90
15364;DHT22;7781;49.690;6.472;2022-10-03T06:10:03;8.20;99.90
15364;DHT22;7781;49.690;6.472;2022-10-03T06:12:41;8.20;99.90
15364;DHT22;7781;49.690;6.472;2022-10-03T06:15:22;8.30;99.90
15364;DHT22;7781;49.690;6.472;2022-10-03T06:18:06;8.30;99.90
15364;DHT22;7781;49.690;6.472;2022-10-03T06:21:15;8.40;99.90
15364;DHT22;7781;49.690;6.472;2022-10-03T06:24:07;8.40;99.90
15364;DHT22;7781;49.690;6.472;2022-10-03T06:27:02;8.40;99.90
15364;DHT22;7781;49.690;6.472;2022-10-03T06:30:10;8.40;99.90
15364;DHT22;7781;49.690;6.472;2022-10-03T06:33:26;8.40;99.90
15364;DHT22;7781;49.690;6.472;2022-10-03T06:36:35;8.40;99.90
15364;DHT22;7781;49.690;6.472;2022-10-03T06:42:44;8.40;99.90
15364;DHT22;7781;49.690;6.472;2022-10-03T06:48:43;8.50;99.90
15364;DHT22;7781;49.690;6.472;2022-10-03T06:51:37;8.50;99.90
15364;DHT22;7781;49.690;6.472;2022-10-03T06:54:39;8.50;99.90
15364;DHT22;7781;49.690;6.472;2022-10-03T06:57:25;8.50;99.90
15364;DHT22;7781;49.690;6.472;2022-10-03T07:00:11;8.40;99.90
15364;DHT22;7781;49.690;6.472;2022-10-03T07:03:26;8.50;99.90
15364;DHT22;7781;49.690;6.472;2022-10-03T07:06:09;8.50;99.90
15364;DHT22;7781;49.690;6.472;2022-10-03T07:09:01;8.50;99.90
15364;DHT22;7781;49.690;6.472;2022-10-03T07:11:42;8.50;99.90
15364;DHT22;7781;49.690;6.472;2022-10-03T07:14:45;8.50;99.90
15364;DHT22;7781;49.690;6.472;2022-10-03T07:17:37;8.60;99.90
15364;DHT22;7781;49.690;6.472;2022-10-03T07:20:31;8.60;99.90
15364;DHT22;7781;49.690;6.472;2022-10-03T07:23:22;8.70;99.90
15364;DHT22;7781;49.690;6.472;2022-10-03T07:29:17;8.60;99.90
15364;DHT22;7781;49.690;6.472;2022-10-03T07:32:08;8.60;99.90
15364;DHT22;7781;49.690;6.472;2022-10-03T07:35:01;8.70;99.90
15364;DHT22;7781;49.690;6.472;2022-10-03T07:37:56;8.70;99.90
15364;DHT22;7781;49.690;6.472;2022-10-03T07:41:14;8.80;99.90
15364;DHT22;7781;49.690;6.472;2022-10-03T07:53:18;9.10;99.90
15364;DHT22;7781;49.690;6.472;2022-10-03T07:55:57;9.20;99.90
15364;DHT22;7781;49.690;6.472;2022-10-03T07:58:53;9.30;99.90
15364;DHT22;7781;49.690;6.472;2022-10-03T08:01:40;9.30;99.90
15364;DHT22;7781;49.690;6.472;2022-10-03T08:04:33;9.40;99.90
15364;DHT22;7781;49.690;6.472;2022-10-03T08:07:23;9.40;99.90
15364;DHT22;7781;49.690;6.472;2022-10-03T08:10:15;9.40;99.90
15364;DHT22;7781;49.690;6.472;2022-10-03T08:13:03;9.50;99.90
15364;DHT22;7781;49.690;6.472;2022-10-03T08:15:49;9.50;99.90
15364;DHT22;7781;49.690;6.472;2022-10-03T08:21:27;9.50;99.90
15364;DHT22;7781;49.690;6.472;2022-10-03T08:24:23;9.60;99.90
15364;DHT22;7781;49.690;6.472;2022-10-03T08:27:14;9.60;99.90
15364;DHT22;7781;49.690;6.472;2022-10-03T08:30:07;9.50;99.90
15364;DHT22;7781;49.690;6.472;2022-10-03T08:36:09;9.60;99.90
15364;DHT22;7781;49.690;6.472;2022-10-03T08:44:51;9.70;99.90
15364;DHT22;7781;49.690;6.472;2022-10-03T08:47:42;9.70;99.90
15364;DHT22;7781;49.690;6.472;2022-10-03T08:50:33;9.80;99.90
15364;DHT22;7781;49.690;6.472;2022-10-03T08:56:15;9.90;99.90
15364;DHT22;7781;49.690;6.472;2022-10-03T08:59:06;10.00;99.90
15364;DHT22;7781;49.690;6.472;2022-10-03T09:05:03;10.10;99.90
15364;DHT22;7781;49.690;6.472;2022-10-03T09:08:01;10.20;99.90
15364;DHT22;7781;49.690;6.472;2022-10-03T09:10:45;10.30;99.90
15364;DHT22;7781;49.690;6.472;2022-10-03T09:13:43;10.30;99.90
15364;DHT22;7781;49.690;6.472;2022-10-03T09:16:49;10.40;99.90
15364;DHT22;7781;49.690;6.472;2022-10-03T09:19:49;10.40;99.90
15364;DHT22;7781;49.690;6.472;2022-10-03T09:28:42;10.50;99.90
15364;DHT22;7781;49.690;6.472;2022-10-03T09:34:35;10.70;99.90
15364;DHT22;7781;49.690;6.472;2022-10-03T09:44:01;10.80;99.90
15364;DHT22;7781;49.690;6.472;2022-10-03T09:47:02;10.80;99.90
15364;DHT22;7781;49.690;6.472;2022-10-03T09:53:23;11.00;99.90
15364;DHT22;7781;49.690;6.472;2022-10-03T09:56:19;10.90;99.90
15364;DHT22;7781;49.690;6.472;2022-10-03T09:59:19;11.00;99.90
15364;DHT22;7781;49.690;6.472;2022-10-03T10:01:55;11.20;99.90
15364;DHT22;7781;49.690;6.472;2022-10-03T10:04:48;11.20;99.90
15364;DHT22;7781;49.690;6.472;2022-10-03T10:07:39;11.30;99.90
15364;DHT22;7781;49.690;6.472;2022-10-03T10:10:47;11.40;99.90
15364;DHT22;7781;49.690;6.472;2022-10-03T10:19:51;11.70;99.90
15364;DHT22;7781;49.690;6.472;2022-10-03T10:22:45;11.80;99.90
15364;DHT22;7781;49.690;6.472;2022-10-03T10:25:35;11.80;99.90
15364;DHT22;7781;49.690;6.472;2022-10-03T10:28:24;11.60;99.90
15364;DHT22;7781;49.690;6.472;2022-10-03T10:34:48;11.90;99.90
15364;DHT22;7781;49.690;6.472;2022-10-03T10:37:48;11.90;99.90
15364;DHT22;7781;49.690;6.472;2022-10-03T10:47:34;12.10;99.90
15364;DHT22;7781;49.690;6.472;2022-10-03T10:50:39;12.20;99.90
15364;DHT22;7781;49.690;6.472;2022-10-03T10:56:49;12.40;99.90
15364;DHT22;7781;49.690;6.472;2022-10-03T11:00:15;12.60;99.90
15364;DHT22;7781;49.690;6.472;2022-10-03T11:06:26;13.10;99.90
15364;DHT22;7781;49.690;6.472;2022-10-03T11:09:25;13.30;99.90
15364;DHT22;7781;49.690;6.472;2022-10-03T11:12:33;13.60;99.90
15364;DHT22;7781;49.690;6.472;2022-10-03T11:28:11;14.30;99.90
15364;DHT22;7781;49.690;6.472;2022-10-03T11:37:41;14.70;99.90
15364;DHT22;7781;49.690;6.472;2022-10-03T11:40:23;14.90;99.90
15364;DHT22;7781;49.690;6.472;2022-10-03T11:43:04;14.90;99.90
15364;DHT22;7781;49.690;6.472;2022-10-03T11:45:38;15.20;99.90
15364;DHT22;7781;49.690;6.472;2022-10-03T11:48:29;15.40;99.90
15364;DHT22;7781;49.690;6.472;2022-10-03T11:51:02;15.70;99.90
15364;DHT22;7781;49.690;6.472;2022-10-03T11:53:43;15.80;99.90
15364;DHT22;7781;49.690;6.472;2022-10-03T11:56:24;15.90;99.90
15364;DHT22;7781;49.690;6.472;2022-10-03T11:59:11;16.00;99.90
15364;DHT22;7781;49.690;6.472;2022-10-03T12:01:52;16.30;99.90
15364;DHT22;7781;49.690;6.472;2022-10-03T12:04:30;16.60;99.90
15364;DHT22;7781;49.690;6.472;2022-10-03T12:07:06;17.00;99.90
15364;DHT22;7781;49.690;6.472;2022-10-03T12:10:03;17.30;99.90
15364;DHT22;7781;49.690;6.472;2022-10-03T12:12:37;17.70;99.90
15364;DHT22;7781;49.690;6.472;2022-10-03T12:15:25;18.00;99.90
15364;DHT22;7781;49.690;6.472;2022-10-03T12:18:03;18.40;96.50
15364;DHT22;7781;49.690;6.472;2022-10-03T12:20:42;18.60;35.50
15364;DHT22;7781;49.690;6.472;2022-10-03T12:23:26;18.60;64.30
15364;DHT22;7781;49.690;6.472;2022-10-03T12:26:00;18.70;51.20
15364;DHT22;7781;49.690;6.472;2022-10-03T12:28:32;18.90;1.00
15364;DHT22;7781;49.690;6.472;2022-10-03T12:31:10;19.00;99.90
15364;DHT22;7781;49.690;6.472;2022-10-03T12:33:50;19.00;1.00
15364;DHT22;7781;49.690;6.472;2022-10-03T12:36:26;19.20;1.00
15364;DHT22;7781;49.690;6.472;2022-10-03T12:39:06;19.20;1.00
15364;DHT22;7781;49.690;6.472;2022-10-03T12:41:53;19.20;99.90
15364;DHT22;7781;49.690;6.472;2022-10-03T12:44:33;19.70;99.90
15364;DHT22;7781;49.690;6.472;2022-10-03T12:47:15;20.00;29.90
15364;DHT22;7781;49.690;6.472;2022-10-03T12:50:20;20.40;1.00
15364;DHT22;7781;49.690;6.472;2022-10-03T12:53:03;20.80;1.00
15364;DHT22;7781;49.690;6.472;2022-10-03T12:55:46;21.20;1.00
15364;DHT22;7781;49.690;6.472;2022-10-03T12:58:26;21.50;99.90
15364;DHT22;7781;49.690;6.472;2022-10-03T13:01:08;21.40;99.90
15364;DHT22;7781;49.690;6.472;2022-10-03T13:03:49;21.30;99.90
15364;DHT22;7781;49.690;6.472;2022-10-03T13:06:33;21.50;1.00
15364;DHT22;7781;49.690;6.472;2022-10-03T13:09:41;21.70;99.90
15364;DHT22;7781;49.690;6.472;2022-10-03T13:12:21;21.90;99.90
15364;DHT22;7781;49.690;6.472;2022-10-03T13:15:33;22.20;99.90
15364;DHT22;7781;49.690;6.472;2022-10-03T13:18:25;22.70;99.90
15364;DHT22;7781;49.690;6.472;2022-10-03T13:21:04;22.90;99.90
15364;DHT22;7781;49.690;6.472;2022-10-03T13:23:57;23.10;99.90
15364;DHT22;7781;49.690;6.472;2022-10-03T13:26:41;23.40;99.90
15364;DHT22;7781;49.690;6.472;2022-10-03T13:29:25;23.50;1.00
15364;DHT22;7781;49.690;6.472;2022-10-03T13:32:11;22.90;99.90
15364;DHT22;7781;49.690;6.472;2022-10-03T13:35:19;23.00;99.90
15364;DHT22;7781;49.690;6.472;2022-10-03T13:41:29;21.70;99.90
15364;DHT22;7781;49.690;6.472;2022-10-03T13:44:04;22.00;99.90
15364;DHT22;7781;49.690;6.472;2022-10-03T13:46:46;22.40;99.90
15364;DHT22;7781;49.690;6.472;2022-10-03T13:49:24;22.60;99.90
15364;DHT22;7781;49.690;6.472;2022-10-03T13:52:09;22.50;99.90
15364;DHT22;7781;49.690;6.472;2022-10-03T13:55:11;22.50;99.90
15364;DHT22;7781;49.690;6.472;2022-10-03T13:57:45;22.30;99.90
15364;DHT22;7781;49.690;6.472;2022-10-03T14:00:20;22.00;97.80
15364;DHT22;7781;49.690;6.472;2022-10-03T14:03:10;21.60;99.90
15364;DHT22;7781;49.690;6.472;2022-10-03T14:05:56;21.10;52.00
15364;DHT22;7781;49.690;6.472;2022-10-03T14:08:51;20.20;10.70
15364;DHT22;7781;49.690;6.472;2022-10-03T14:11:25;20.30;3.30
15364;DHT22;7781;49.690;6.472;2022-10-03T14:14:15;20.00;1.00
15364;DHT22;7781;49.690;6.472;2022-10-03T14:16:54;19.80;1.00
15364;DHT22;7781;49.690;6.472;2022-10-03T14:19:42;19.70;99.90
15364;DHT22;7781;49.690;6.472;2022-10-03T14:22:34;19.60;99.90
15364;DHT22;7781;49.690;6.472;2022-10-03T14:25:22;19.60;99.90
15364;DHT22;7781;49.690;6.472;2022-10-03T14:28:01;19.60;99.90
15364;DHT22;7781;49.690;6.472;2022-10-03T14:30:35;19.50;1.00
15364;DHT22;7781;49.690;6.472;2022-10-03T14:33:37;19.50;1.00
15364;DHT22;7781;49.690;6.472;2022-10-03T14:36:20;19.40;1.00
15364;DHT22;7781;49.690;6.472;2022-10-03T14:39:00;19.40;1.00
15364;DHT22;7781;49.690;6.472;2022-10-03T14:41:43;19.40;1.00
15364;DHT22;7781;49.690;6.472;2022-10-03T14:44:38;19.30;1.00
15364;DHT22;7781;49.690;6.472;2022-10-03T14:47:09;19.10;1.00
15364;DHT22;7781;49.690;6.472;2022-10-03T14:49:48;18.80;28.50
15364;DHT22;7781;49.690;6.472;2022-10-03T14:52:35;18.60;99.90
15364;DHT22;7781;49.690;6.472;2022-10-03T14:55:11;18.50;1.00
15364;DHT22;7781;49.690;6.472;2022-10-03T14:57:46;18.10;1.00
15364;DHT22;7781;49.690;6.472;2022-10-03T15:00:39;17.80;1.00
15364;DHT22;7781;49.690;6.472;2022-10-03T15:03:31;17.70;1.00
15364;DHT22;7781;49.690;6.472;2022-10-03T15:06:30;17.40;1.00
15364;DHT22;7781;49.690;6.472;2022-10-03T15:09:08;16.90;1.00
15364;DHT22;7781;49.690;6.472;2022-10-03T15:11:53;16.50;59.50
15364;DHT22;7781;49.690;6.472;2022-10-03T15:14:31;16.00;99.90
15364;DHT22;7781;49.690;6.472;2022-10-03T15:17:19;15.60;99.90
15364;DHT22;7781;49.690;6.472;2022-10-03T15:19:51;15.40;99.90
15364;DHT22;7781;49.690;6.472;2022-10-03T15:22:30;15.20;99.90
15364;DHT22;7781;49.690;6.472;2022-10-03T15:25:10;15.00;99.90
15364;DHT22;7781;49.690;6.472;2022-10-03T15:27:50;14.70;99.90
15364;DHT22;7781;49.690;6.472;2022-10-03T15:30:27;14.40;99.90
15364;DHT22;7781;49.690;6.472;2022-10-03T15:33:09;14.30;99.90
15364;DHT22;7781;49.690;6.472;2022-10-03T15:35:50;14.50;99.90
15364;DHT22;7781;49.690;6.472;2022-10-03T15:38:30;14.80;99.90
15364;DHT22;7781;49.690;6.472;2022-10-03T15:41:08;15.00;99.90
15364;DHT22;7781;49.690;6.472;2022-10-03T15:43:43;15.10;99.90
15364;DHT22;7781;49.690;6.472;2022-10-03T15:46:30;15.00;99.90
15364;DHT22;7781;49.690;6.472;2022-10-03T15:49:15;14.90;99.90
15364;DHT22;7781;49.690;6.472;2022-10-03T15:51:47;14.80;99.90
15364;DHT22;7781;49.690;6.472;2022-10-03T15:54:26;14.70;99.90
15364;DHT22;7781;49.690;6.472;2022-10-03T15:56:59;14.60;99.90
15364;DHT22;7781;49.690;6.472;2022-10-03T15:59:37;14.50;99.90
15364;DHT22;7781;49.690;6.472;2022-10-03T16:02:15;14.40;99.90
15364;DHT22;7781;49.690;6.472;2022-10-03T16:04:52;14.20;99.90
15364;DHT22;7781;49.690;6.472;2022-10-03T16:07:35;14.20;99.90
15364;DHT22;7781;49.690;6.472;2022-10-03T16:10:16;14.30;99.90
15364;DHT22;7781;49.690;6.472;2022-10-03T16:12:58;14.30;99.90
15364;DHT22;7781;49.690;6.472;2022-10-03T16:15:36;14.20;99.90
15364;DHT22;7781;49.690;6.472;2022-10-03T16:18:43;14.10;99.90
15364;DHT22;7781;49.690;6.472;2022-10-03T16:21:42;14.10;99.90
15364;DHT22;7781;49.690;6.472;2022-10-03T16:24:29;14.10;99.90
15364;DHT22;7781;49.690;6.472;2022-10-03T16:27:09;14.00;99.90
15364;DHT22;7781;49.690;6.472;2022-10-03T16:29:46;13.90;99.90
15364;DHT22;7781;49.690;6.472;2022-10-03T16:32:20;13.70;99.90
15364;DHT22;7781;49.690;6.472;2022-10-03T16:34:50;13.50;99.90
15364;DHT22;7781;49.690;6.472;2022-10-03T16:37:22;13.30;99.90
15364;DHT22;7781;49.690;6.472;2022-10-03T16:39:56;13.20;99.90
15364;DHT22;7781;49.690;6.472;2022-10-03T16:42:28;13.00;99.90
15364;DHT22;7781;49.690;6.472;2022-10-03T16:45:12;12.90;99.90
15364;DHT22;7781;49.690;6.472;2022-10-03T16:47:46;12.90;99.90
15364;DHT22;7781;49.690;6.472;2022-10-03T16:50:40;12.90;99.90
15364;DHT22;7781;49.690;6.472;2022-10-03T16:53:11;12.60;99.90
15364;DHT22;7781;49.690;6.472;2022-10-03T16:55:45;12.50;99.90
15364;DHT22;7781;49.690;6.472;2022-10-03T16:58:18;12.30;99.90
15364;DHT22;7781;49.690;6.472;2022-10-03T17:00:58;12.20;99.90
15364;DHT22;7781;49.690;6.472;2022-10-03T17:03:51;12.00;99.90
15364;DHT22;7781;49.690;6.472;2022-10-03T17:06:27;11.80;99.90
15364;DHT22;7781;49.690;6.472;2022-10-03T17:09:00;11.60;99.90
15364;DHT22;7781;49.690;6.472;2022-10-03T17:11:34;11.50;99.90
15364;DHT22;7781;49.690;6.472;2022-10-03T17:14:06;11.40;99.90
15364;DHT22;7781;49.690;6.472;2022-10-03T17:16:38;11.30;99.90
15364;DHT22;7781;49.690;6.472;2022-10-03T17:19:18;11.40;99.90
15364;DHT22;7781;49.690;6.472;2022-10-03T17:21:51;11.40;99.90
15364;DHT22;7781;49.690;6.472;2022-10-03T17:24:31;11.40;99.90
15364;DHT22;7781;49.690;6.472;2022-10-03T17:27:03;11.30;99.90
15364;DHT22;7781;49.690;6.472;2022-10-03T17:29:40;11.20;99.90
15364;DHT22;7781;49.690;6.472;2022-10-03T17:32:19;11.30;99.90
15364;DHT22;7781;49.690;6.472;2022-10-03T17:34:52;11.30;99.90
15364;DHT22;7781;49.690;6.472;2022-10-03T17:37:50;11.30;99.90
15364;DHT22;7781;49.690;6.472;2022-10-03T17:40:33;11.30;99.90
15364;DHT22;7781;49.690;6.472;2022-10-03T17:43:15;11.30;99.90
15364;DHT22;7781;49.690;6.472;2022-10-03T17:45:47;11.20;99.90
15364;DHT22;7781;49.690;6.472;2022-10-03T17:48:24;11.10;99.90
15364;DHT22;7781;49.690;6.472;2022-10-03T17:51:00;11.00;
15364;DHT22;7781;49.690;6.472;2022-10-03T17:53:36;10.90;99.90
15364;DHT22;7781;49.690;6.472;2022-10-03T17:56:10;10.90;99.90
15364;DHT22;7781;49.690;6.472;2022-10-03T17:58:42;10.60;99.90
15364;DHT22;7781;49.690;6.472;2022-10-03T18:01:14;10.50;99.90
15364;DHT22;7781;49.690;6.472;2022-10-03T18:03:47;10.30;99.90
15364;DHT22;7781;49.690;6.472;2022-10-03T18:06:37;10.10;99.90
15364;DHT22;7781;49.690;6.472;2022-10-03T18:09:19;10.00;99.90
15364;DHT22;7781;49.690;6.472;2022-10-03T18:11:54;9.80;99.90
15364;DHT22;7781;49.690;6.472;2022-10-03T18:14:32;9.70;99.90
15364;DHT22;7781;49.690;6.472;2022-10-03T18:17:06;9.70;99.90
15364;DHT22;7781;49.690;6.472;2022-10-03T18:19:52;9.60;99.90
15364;DHT22;7781;49.690;6.472;2022-10-03T18:22:27;9.50;99.90
15364;DHT22;7781;49.690;6.472;2022-10-03T18:25:01;9.50;99.90
15364;DHT22;7781;49.690;6.472;2022-10-03T18:28:11;9.40;99.90
15364;DHT22;7781;49.690;6.472;2022-10-03T18:30:47;9.40;99.90
15364;DHT22;7781;49.690;6.472;2022-10-03T18:33:20;9.40;99.90
15364;DHT22;7781;49.690;6.472;2022-10-03T18:35:50;9.40;99.90
15364;DHT22;7781;49.690;6.472;2022-10-03T18:38:20;9.40;99.90
15364;DHT22;7781;49.690;6.472;2022-10-03T18:40:53;9.30;99.90
15364;DHT22;7781;49.690;6.472;2022-10-03T18:43:26;9.30;99.90
15364;DHT22;7781;49.690;6.472;2022-10-03T18:46:02;9.30;99.90
15364;DHT22;7781;49.690;6.472;2022-10-03T18:48:39;9.20;99.90
15364;DHT22;7781;49.690;6.472;2022-10-03T18:51:12;9.20;99.90
15364;DHT22;7781;49.690;6.472;2022-10-03T18:53:45;9.20;99.90
15364;DHT22;7781;49.690;6.472;2022-10-03T18:56:20;9.20;99.90
15364;DHT22;7781;49.690;6.472;2022-10-03T18:59:14;9.10;99.90
15364;DHT22;7781;49.690;6.472;2022-10-03T19:01:50;9.00;99.90
15364;DHT22;7781;49.690;6.472;2022-10-03T19:04:35;9.00;99.90
15364;DHT22;7781;49.690;6.472;2022-10-03T19:07:13;9.00;99.90
15364;DHT22;7781;49.690;6.472;2022-10-03T19:10:20;9.00;99.90
15364;DHT22;7781;49.690;6.472;2022-10-03T19:12:54;9.00;99.90
15364;DHT22;7781;49.690;6.472;2022-10-03T19:15:40;9.10;99.90
15364;DHT22;7781;49.690;6.472;2022-10-03T19:18:20;9.10;99.90
15364;DHT22;7781;49.690;6.472;2022-10-03T19:20:50;9.00;99.90
15364;DHT22;7781;49.690;6.472;2022-10-03T19:23:22;9.00;99.90
15364;DHT22;7781;49.690;6.472;2022-10-03T19:25:55;8.90;99.90
15364;DHT22;7781;49.690;6.472;2022-10-03T19:28:27;8.90;99.90
15364;DHT22;7781;49.690;6.472;2022-10-03T19:31:03;8.90;99.90
15364;DHT22;7781;49.690;6.472;2022-10-03T19:33:40;8.90;99.90
15364;DHT22;7781;49.690;6.472;2022-10-03T19:36:15;8.70;99.90
15364;DHT22;7781;49.690;6.472;2022-10-03T19:38:45;8.70;99.90
15364;DHT22;7781;49.690;6.472;2022-10-03T19:41:24;8.70;99.90
15364;DHT22;7781;49.690;6.472;2022-10-03T19:43:54;8.70;99.90
15364;DHT22;7781;49.690;6.472;2022-10-03T19:46:47;8.60;99.90
15364;DHT22;7781;49.690;6.472;2022-10-03T19:49:26;8.50;99.90
15364;DHT22;7781;49.690;6.472;2022-10-03T19:52:14;8.40;99.90
15364;DHT22;7781;49.690;6.472;2022-10-03T19:54:45;8.40;99.90
15364;DHT22;7781;49.690;6.472;2022-10-03T19:57:17;8.30;99.90
15364;DHT22;7781;49.690;6.472;2022-10-03T19:59:49;8.20;99.90